Time;durP1;ratioP1;P1;durP2;ratioP2;P2;SDS_P1;SDS_P2;PMS_P1;PMS_P2;Temp;Humidity;BMP_temperature;BMP_pressure;BME280_temperature;BME280_humidity;BME280_pressure;Samples;Min_cycle;Max_cycle;Signal;HPM_P1;HPM_P2
2024/03/03 00:04:13;;;;;;;5.20;3.60;;;12.60;99.90;;;;;;10019958;28;20060;-73
2024/03/03 00:09:05;;;;;;;7.60;4.03;;;12.50;99.90;;;;;;10019392;28;20069;-74
2024/03/03 00:13:56;;;;;;;8.63;4.03;;;12.50;99.90;;;;;;10023586;28;20033;-74
2024/03/03 00:18:46;;;;;;;5.97;3.75;;;12.60;99.90;;;;;;10019061;28;20033;-73
2024/03/03 00:23:37;;;;;;;6.22;3.50;;;12.50;99.90;;;;;;10022385;28;20466;-74
2024/03/03 00:28:28;;;;;;;5.13;3.55;;;12.50;99.90;;;;;;10022838;28;20393;-72
2024/03/03 00:33:18;;;;;;;5.47;3.20;;;12.50;99.90;;;;;;10023375;28;20399;-74
2024/03/03 00:38:09;;;;;;;6.30;4.00;;;12.50;99.90;;;;;;10023493;28;20047;-74
2024/03/03 00:43:00;;;;;;;6.15;4.55;;;12.50;99.90;;;;;;10017736;28;20030;-74
2024/03/03 00:47:50;;;;;;;6.60;3.88;;;12.50;99.90;;;;;;10018348;28;20048;-74
2024/03/03 00:52:41;;;;;;;5.35;3.30;;;12.50;99.90;;;;;;10020252;28;20034;-74
2024/03/03 00:57:32;;;;;;;4.15;3.30;;;12.40;99.90;;;;;;10020729;28;20056;-73
2024/03/03 01:02:22;;;;;;;3.83;3.08;;;12.40;99.90;;;;;;10017786;28;20022;-74
2024/03/03 01:07:13;;;;;;;5.22;3.35;;;12.40;99.90;;;;;;10019765;28;20033;-74
2024/03/03 01:12:04;;;;;;;6.85;4.00;;;12.40;99.90;;;;;;10031776;28;20413;-74
2024/03/03 01:16:55;;;;;;;7.22;3.92;;;12.40;99.90;;;;;;10018843;28;20435;-74
2024/03/03 01:21:46;;;;;;;6.63;4.07;;;12.50;99.90;;;;;;10018502;28;20030;-74
2024/03/03 01:26:37;;;;;;;6.13;3.55;;;12.50;99.90;;;;;;10018440;28;20057;-74
2024/03/03 01:31:28;;;;;;;6.53;3.67;;;12.50;99.90;;;;;;10019786;28;20435;-74
2024/03/03 01:36:18;;;;;;;7.03;4.03;;;12.30;99.90;;;;;;10024535;28;20041;-73
2024/03/03 01:41:09;;;;;;;7.40;4.13;;;12.30;99.90;;;;;;10018197;28;20022;-73
2024/03/03 01:45:59;;;;;;;6.35;3.72;;;12.40;99.90;;;;;;10017621;28;20037;-73
2024/03/03 01:50:52;;;;;;;6.18;4.00;;;12.50;99.90;;;;;;10017790;28;20399;-75
2024/03/03 01:55:43;;;;;;;7.88;4.03;;;12.50;99.90;;;;;;10017947;28;20026;-74
2024/03/03 02:00:34;;;;;;;6.63;4.53;;;12.40;99.90;;;;;;10035493;28;20036;-73
2024/03/03 02:05:25;;;;;;;6.03;4.88;;;12.40;99.90;;;;;;10025166;28;20069;-74
2024/03/03 02:10:17;;;;;;;11.43;5.07;;;12.50;99.90;;;;;;10017227;28;20061;-75
2024/03/03 02:15:07;;;;;;;8.30;5.43;;;12.40;99.90;;;;;;10032201;28;20614;-74
2024/03/03 02:19:58;;;;;;;8.55;4.70;;;12.40;99.90;;;;;;10016778;28;20022;-73
2024/03/03 02:24:49;;;;;;;8.25;4.95;;;12.40;99.90;;;;;;10011681;28;20140;-72
2024/03/03 02:29:40;;;;;;;9.38;5.43;;;12.40;99.90;;;;;;10018703;28;20081;-73
2024/03/03 02:34:30;;;;;;;12.35;5.57;;;12.40;99.90;;;;;;10016598;28;20217;-73
2024/03/03 02:39:21;;;;;;;9.38;5.18;;;12.30;99.90;;;;;;10016147;28;20030;-72
2024/03/03 02:44:12;;;;;;;10.13;4.88;;;12.30;99.90;;;;;;10017192;28;20026;-72
2024/03/03 02:49:03;;;;;;;7.78;4.57;;;12.30;99.90;;;;;;10016594;28;20033;-72
2024/03/03 02:53:54;;;;;;;8.55;5.20;;;12.30;99.90;;;;;;10013375;28;20156;-73
2024/03/03 02:58:44;;;;;;;10.52;5.82;;;12.30;99.90;;;;;;10016287;28;20574;-73
2024/03/03 03:03:35;;;;;;;10.13;4.72;;;12.30;99.90;;;;;;10018085;28;20033;-73
2024/03/03 03:08:26;;;;;;;9.00;5.07;;;12.30;99.90;;;;;;10023765;28;20066;-73
2024/03/03 03:13:19;;;;;;;8.70;5.68;;;12.20;99.90;;;;;;10023404;28;20048;-73
2024/03/03 03:18:09;;;;;;;10.45;6.55;;;12.10;99.90;;;;;;10020616;28;20653;-73
2024/03/03 03:23:00;;;;;;;9.23;5.53;;;12.00;99.90;;;;;;10029531;28;20036;-73
2024/03/03 03:27:50;;;;;;;9.90;5.63;;;12.00;99.90;;;;;;10020807;28;20054;-74
2024/03/03 03:32:41;;;;;;;10.75;5.90;;;12.10;99.90;;;;;;10023191;28;20146;-73
2024/03/03 03:37:32;;;;;;;10.15;6.45;;;11.90;99.90;;;;;;10022555;28;20045;-73
2024/03/03 03:42:22;;;;;;;11.20;6.38;;;11.90;99.90;;;;;;10027205;28;20029;-73
2024/03/03 03:47:13;;;;;;;10.50;6.53;;;12.00;99.90;;;;;;10018255;28;20050;-73
2024/03/03 03:52:04;;;;;;;12.82;7.13;;;12.00;99.90;;;;;;10012524;28;20023;-73
2024/03/03 03:56:58;;;;;;;10.48;5.72;;;12.00;99.90;;;;;;10020798;28;20138;-73
2024/03/03 04:01:49;;;;;;;11.50;6.95;;;12.00;99.90;;;;;;10019925;28;20061;-73
2024/03/03 04:06:39;;;;;;;10.77;6.68;;;12.00;99.90;;;;;;10029690;28;20084;-74
2024/03/03 04:11:30;;;;;;;13.85;6.30;;;12.00;99.90;;;;;;10028337;28;20458;-73
2024/03/03 04:16:20;;;;;;;11.02;5.80;;;12.00;99.90;;;;;;10021155;28;20033;-73
2024/03/03 04:21:12;;;;;;;12.93;7.35;;;12.00;99.90;;;;;;10022646;28;20021;-74
2024/03/03 04:26:06;;;;;;;12.90;7.38;;;11.90;99.90;;;;;;10018819;28;20045;-74
2024/03/03 04:30:57;;;;;;;10.75;6.13;;;11.80;99.90;;;;;;10023533;28;20148;-74
2024/03/03 04:35:47;;;;;;;13.82;7.75;;;11.80;99.90;;;;;;10028738;28;20049;-74
2024/03/03 04:40:38;;;;;;;11.48;6.45;;;11.70;99.90;;;;;;10022999;28;20576;-73
2024/03/03 04:45:29;;;;;;;17.02;8.43;;;11.60;99.90;;;;;;10017381;28;20103;-73
2024/03/03 04:50:19;;;;;;;17.70;7.65;;;11.40;99.90;;;;;;10021650;28;20030;-72
2024/03/03 04:55:10;;;;;;;14.18;7.35;;;11.40;99.90;;;;;;10020343;28;20042;-73
2024/03/03 05:00:02;;;;;;;13.10;8.20;;;11.30;99.90;;;;;;10019537;28;20022;-72
2024/03/03 05:04:53;;;;;;;14.80;7.53;;;11.30;99.90;;;;;;10020368;28;20073;-73
2024/03/03 05:09:44;;;;;;;12.85;8.18;;;11.30;99.90;;;;;;10018984;28;20053;-73
2024/03/03 05:14:35;;;;;;;15.20;8.05;;;11.50;99.90;;;;;;10019145;28;20084;-73
2024/03/03 05:19:26;;;;;;;14.57;8.52;;;11.50;99.90;;;;;;10020936;28;20376;-73
2024/03/03 05:24:16;;;;;;;14.70;7.90;;;11.40;99.90;;;;;;10020409;28;20036;-74
2024/03/03 05:29:07;;;;;;;15.73;7.93;;;11.40;99.90;;;;;;10016806;28;20034;-73
2024/03/03 05:33:58;;;;;;;16.85;8.55;;;11.50;99.90;;;;;;10017394;28;20562;-73
2024/03/03 05:38:49;;;;;;;16.65;9.10;;;11.60;99.90;;;;;;10016685;28;20121;-73
2024/03/03 05:43:39;;;;;;;17.35;8.68;;;11.60;99.90;;;;;;10016967;28;20034;-73
2024/03/03 05:48:30;;;;;;;13.23;7.60;;;11.50;99.90;;;;;;10024501;28;20064;-74
2024/03/03 05:53:20;;;;;;;16.65;8.85;;;11.30;99.90;;;;;;10016337;28;20109;-73
2024/03/03 05:58:11;;;;;;;14.52;7.13;;;11.40;99.90;;;;;;10017481;28;20026;-73
2024/03/03 06:03:02;;;;;;;14.30;8.25;;;11.30;99.90;;;;;;10017611;28;20025;-73
2024/03/03 06:07:52;;;;;;;16.98;9.55;;;11.30;99.90;;;;;;10016718;28;20439;-73
2024/03/03 06:12:47;;;;;;;16.50;9.52;;;11.30;99.90;;;;;;10017276;28;20030;-73
2024/03/03 06:17:38;;;;;;;14.70;8.05;;;11.20;99.90;;;;;;10010195;28;20081;-72
2024/03/03 06:22:29;;;;;;;16.63;8.60;;;11.10;99.90;;;;;;10016267;28;20018;-73
2024/03/03 06:27:19;;;;;;;17.30;7.65;;;11.00;99.90;;;;;;10024609;28;20058;-73
2024/03/03 06:32:10;;;;;;;18.85;7.70;;;10.90;99.90;;;;;;10016440;28;20026;-73
2024/03/03 06:37:01;;;;;;;15.90;8.43;;;11.00;99.90;;;;;;10016129;28;20120;-72
2024/03/03 06:41:51;;;;;;;18.15;9.15;;;11.00;99.90;;;;;;10014868;28;20569;-72
2024/03/03 06:46:45;;;;;;;13.98;8.77;;;11.10;99.90;;;;;;10023313;28;20415;-73
2024/03/03 06:51:37;;;;;;;16.98;7.97;;;10.90;99.90;;;;;;10016037;28;20105;-73
2024/03/03 06:56:28;;;;;;;16.30;8.75;;;10.80;99.90;;;;;;10010867;28;20041;-74
2024/03/03 07:01:18;;;;;;;15.23;8.05;;;10.80;99.90;;;;;;10023855;28;20540;-73
2024/03/03 07:06:09;;;;;;;16.27;8.07;;;10.90;99.90;;;;;;10017492;28;20072;-73
2024/03/03 07:11:00;;;;;;;17.88;8.15;;;11.00;99.90;;;;;;10025970;28;20053;-74
2024/03/03 07:15:51;;;;;;;14.63;8.65;;;11.00;99.90;;;;;;10016103;28;20037;-73
2024/03/03 07:20:42;;;;;;;14.10;8.02;;;11.10;99.90;;;;;;10009283;28;20021;-74
2024/03/03 07:25:33;;;;;;;17.88;8.63;;;11.10;99.90;;;;;;10014058;28;20462;-74
2024/03/03 07:30:23;;;;;;;15.32;8.35;;;11.00;99.90;;;;;;10014946;28;20057;-74
2024/03/03 07:35:14;;;;;;;18.38;8.25;;;11.10;99.90;;;;;;10015502;28;20113;-72
2024/03/03 07:40:06;;;;;;;17.67;8.68;;;11.10;99.90;;;;;;10014569;28;20088;-74
2024/03/03 07:44:57;;;;;;;16.88;8.30;;;11.00;99.90;;;;;;10018180;28;20037;-74
2024/03/03 07:49:48;;;;;;;15.90;8.32;;;11.10;99.90;;;;;;10018713;28;20034;-72
2024/03/03 07:54:39;;;;;;;16.73;8.70;;;11.20;99.90;;;;;;10028143;28;20116;-71
2024/03/03 07:59:29;;;;;;;15.55;8.45;;;11.10;99.90;;;;;;10034123;28;20033;-70
2024/03/03 08:04:20;;;;;;;17.23;8.07;;;11.10;99.90;;;;;;10033501;28;20089;-71
2024/03/03 08:09:12;;;;;;;17.92;8.88;;;10.90;99.90;;;;;;10021300;28;20380;-73
2024/03/03 08:14:03;;;;;;;18.80;9.43;;;11.00;99.90;;;;;;10015840;28;20033;-75
2024/03/03 08:18:53;;;;;;;17.55;8.30;;;11.10;99.90;;;;;;10022380;28;20037;-75
2024/03/03 08:23:44;;;;;;;20.50;9.30;;;11.10;99.90;;;;;;10021816;28;20752;-76
2024/03/03 08:28:35;;;;;;;20.23;9.45;;;11.10;99.90;;;;;;10019645;28;20049;-75
2024/03/03 08:33:26;;;;;;;17.63;9.30;;;11.20;99.90;;;;;;10020934;28;20109;-76
2024/03/03 08:38:17;;;;;;;17.02;8.07;;;11.20;99.90;;;;;;10024785;28;20049;-73
2024/03/03 08:43:08;;;;;;;20.40;9.73;;;11.20;99.90;;;;;;10027637;28;20036;-74
2024/03/03 08:47:58;;;;;;;17.33;9.32;;;11.00;99.90;;;;;;10032413;28;20081;-75
2024/03/03 08:52:49;;;;;;;17.05;9.23;;;11.00;99.90;;;;;;10016388;28;20073;-74
2024/03/03 08:57:40;;;;;;;16.38;8.73;;;11.10;99.90;;;;;;10019287;28;20038;-75
2024/03/03 09:02:31;;;;;;;17.15;9.32;;;11.20;99.90;;;;;;10020561;28;20034;-74
2024/03/03 09:07:21;;;;;;;16.75;9.23;;;11.30;99.90;;;;;;10018626;28;20187;-75
2024/03/03 09:12:12;;;;;;;15.77;7.85;;;11.30;99.90;;;;;;10019507;28;20047;-74
2024/03/03 09:17:03;;;;;;;17.38;9.63;;;11.30;99.90;;;;;;10017966;28;20041;-74
2024/03/03 09:21:53;;;;;;;16.80;8.20;;;11.40;99.90;;;;;;10015453;28;20041;-72
2024/03/03 09:26:44;;;;;;;17.05;9.30;;;11.50;99.90;;;;;;10018229;28;20096;-72
2024/03/03 09:31:36;;;;;;;15.13;8.18;;;11.50;99.90;;;;;;10010140;28;20026;-75
2024/03/03 09:36:27;;;;;;;14.90;8.18;;;11.60;99.90;;;;;;10020172;28;20029;-74
2024/03/03 09:41:19;;;;;;;17.52;8.15;;;11.60;99.90;;;;;;10018274;28;20076;-74
2024/03/03 09:46:10;;;;;;;15.65;8.07;;;11.50;99.90;;;;;;10016689;28;20076;-73
2024/03/03 09:51:01;;;;;;;18.45;8.38;;;11.70;99.90;;;;;;10013767;28;20032;-73
2024/03/03 09:55:55;;;;;;;15.35;8.25;;;11.60;99.90;;;;;;10012682;28;20133;-74
2024/03/03 10:00:46;;;;;;;17.08;8.35;;;11.60;99.90;;;;;;10018184;28;20030;-73
2024/03/03 10:05:41;;;;;;;14.85;7.90;;;11.60;99.90;;;;;;10016507;28;20050;-75
2024/03/03 10:10:36;;;;;;;;;;;11.60;99.90;;;;;;10016189;28;20025;-74
2024/03/03 10:15:30;;;;;;;13.70;7.82;;;11.70;99.90;;;;;;10021653;28;19948;-74
2024/03/03 10:20:21;;;;;;;18.23;8.75;;;11.80;99.90;;;;;;10016001;28;20034;-74
2024/03/03 10:25:14;;;;;;;15.07;7.93;;;11.80;99.90;;;;;;10017865;28;20061;-74
2024/03/03 10:30:09;;;;;;;16.13;7.88;;;11.90;99.90;;;;;;10021447;28;20049;-73
2024/03/03 10:35:03;;;;;;;16.75;8.93;;;12.10;99.90;;;;;;10021149;28;20037;-73
2024/03/03 10:39:54;;;;;;;16.40;8.00;;;12.20;99.90;;;;;;10016205;28;20084;-74
2024/03/03 10:44:45;;;;;;;14.60;7.78;;;12.10;99.90;;;;;;10013973;28;20042;-74
2024/03/03 10:49:38;;;;;;;17.27;8.40;;;12.20;99.90;;;;;;10018278;28;20149;-74
2024/03/03 10:54:31;;;;;;;15.43;7.82;;;12.20;99.90;;;;;;10020504;28;20103;-74
2024/03/03 10:59:22;;;;;;;18.42;7.80;;;12.30;99.90;;;;;;10026931;28;20022;-76
2024/03/03 11:04:14;;;;;;;15.68;8.43;;;12.30;99.90;;;;;;10008308;28;20038;-73
2024/03/03 11:09:06;;;;;;;15.00;8.07;;;12.30;99.90;;;;;;10025376;28;20050;-75
2024/03/03 11:14:04;;;;;;;14.48;8.57;;;12.20;99.90;;;;;;10017711;28;20030;-75
2024/03/03 11:19:04;;;;;;;15.20;8.68;;;12.20;99.90;;;;;;10014463;28;20021;-74
2024/03/03 11:24:08;;;;;;;19.55;7.68;;;12.20;99.90;;;;;;10016061;28;20049;-74
2024/03/03 11:29:00;;;;;;;15.45;7.28;;;12.30;99.90;;;;;;10027775;28;20092;-74
2024/03/03 11:33:58;;;;;;;15.35;9.40;;;12.60;99.90;;;;;;10022114;28;20041;-74
2024/03/03 11:38:50;;;;;;;15.13;8.07;;;12.50;99.90;;;;;;10028588;28;20030;-74
2024/03/03 11:43:41;;;;;;;16.10;8.45;;;12.40;99.90;;;;;;10019771;28;20045;-74
2024/03/03 11:48:33;;;;;;;16.42;8.85;;;12.30;99.90;;;;;;10022347;28;20053;-74
2024/03/03 11:53:23;;;;;;;17.02;10.07;;;12.40;99.90;;;;;;10022591;28;20045;-73
2024/03/03 11:58:17;;;;;;;18.38;8.18;;;12.50;99.90;;;;;;10021689;28;20137;-74
2024/03/03 12:03:09;;;;;;;16.30;8.43;;;12.60;99.90;;;;;;10021892;28;20072;-74
2024/03/03 12:08:00;;;;;;;15.18;7.93;;;12.70;99.90;;;;;;10021109;28;20675;-74
2024/03/03 12:12:59;;;;;;;17.48;8.25;;;12.70;99.90;;;;;;10021405;28;20032;-74
2024/03/03 12:17:57;;;;;;;14.35;7.38;;;12.60;99.90;;;;;;10021068;28;20453;-74
2024/03/03 12:22:49;;;;;;;16.42;7.78;;;12.60;99.90;;;;;;10021941;28;20454;-74
2024/03/03 12:27:53;;;;;;;19.85;8.07;;;12.50;99.90;;;;;;10020075;28;20613;-74
2024/03/03 12:32:44;;;;;;;21.60;8.73;;;12.50;99.90;;;;;;10016018;28;20526;-73
2024/03/03 12:37:34;;;;;;;14.63;7.53;;;12.60;99.90;;;;;;10025313;28;20029;-74
2024/03/03 12:42:25;;;;;;;16.10;8.00;;;12.60;99.90;;;;;;10019713;28;20037;-74
2024/03/03 12:47:16;;;;;;;20.55;7.97;;;12.60;99.90;;;;;;10017948;28;20096;-74
2024/03/03 12:52:08;;;;;;;15.57;7.70;;;12.70;99.90;;;;;;10021692;28;20426;-74
2024/03/03 12:56:58;;;;;;;18.65;8.45;;;12.70;99.90;;;;;;10021871;28;20041;-73
2024/03/03 13:01:49;;;;;;;13.88;7.78;;;12.70;99.90;;;;;;10019234;28;20033;-74
2024/03/03 13:06:41;;;;;;;16.40;8.15;;;12.60;99.90;;;;;;10019008;28;20060;-74
2024/03/03 13:11:32;;;;;;;16.95;8.23;;;12.70;99.90;;;;;;10019027;28;20026;-73
2024/03/03 13:16:22;;;;;;;14.32;7.38;;;12.70;99.90;;;;;;10021770;28;20034;-75
2024/03/03 13:21:14;;;;;;;15.98;8.75;;;12.70;99.90;;;;;;10030673;28;20100;-73
2024/03/03 13:26:05;;;;;;;13.07;7.95;;;12.70;99.90;;;;;;10027336;28;20049;-73
2024/03/03 13:31:03;;;;;;;17.40;6.78;;;12.70;99.90;;;;;;10018837;28;20018;-74
2024/03/03 13:35:54;;;;;;;11.50;7.00;;;12.80;99.90;;;;;;10016282;28;20030;-74
2024/03/03 13:40:45;;;;;;;14.45;7.90;;;12.80;99.90;;;;;;10025338;28;20119;-75
2024/03/03 13:45:35;;;;;;;14.80;7.93;;;12.80;99.90;;;;;;10023914;28;20038;-73
2024/03/03 13:50:27;;;;;;;16.23;9.05;;;12.70;99.90;;;;;;10016884;28;20045;-73
2024/03/03 13:55:20;;;;;;;13.57;7.55;;;12.80;99.90;;;;;;10022670;28;20491;-74
2024/03/03 14:00:14;;;;;;;11.65;6.53;;;12.80;99.90;;;;;;10019451;28;20471;-73
2024/03/03 14:05:05;;;;;;;13.77;7.30;;;12.80;99.90;;;;;;10016129;28;20842;-73
2024/03/03 14:09:56;;;;;;;13.05;7.55;;;12.80;99.90;;;;;;10023916;28;20144;-74
2024/03/03 14:14:47;;;;;;;14.68;6.90;;;13.00;99.90;;;;;;10019563;28;20025;-74
2024/03/03 14:19:38;;;;;;;12.07;6.68;;;12.90;99.90;;;;;;10037551;28;20057;-74
2024/03/03 14:24:28;;;;;;;15.82;6.82;;;13.00;99.90;;;;;;10016430;28;20044;-75
2024/03/03 14:29:19;;;;;;;11.43;5.90;;;13.10;99.90;;;;;;10015724;28;20062;-74
2024/03/03 14:34:11;;;;;;;12.57;6.30;;;13.20;99.90;;;;;;10015978;28;20509;-73
2024/03/03 14:39:02;;;;;;;12.18;6.63;;;13.10;99.90;;;;;;10020118;28;20121;-74
2024/03/03 14:43:53;;;;;;;14.02;7.28;;;13.20;99.90;;;;;;10029983;28;20513;-74
2024/03/03 14:48:44;;;;;;;14.15;7.22;;;13.20;99.90;;;;;;10015941;28;20655;-73
2024/03/03 14:53:35;;;;;;;14.18;7.65;;;13.30;99.90;;;;;;10013839;28;20648;-74
2024/03/03 14:58:25;;;;;;;13.98;7.00;;;13.30;99.90;;;;;;10015957;28;20026;-74
2024/03/03 15:03:16;;;;;;;13.45;7.75;;;13.20;99.90;;;;;;10015019;28;20029;-76
2024/03/03 15:08:08;;;;;;;10.38;6.63;;;13.20;99.90;;;;;;10011421;28;20056;-73
2024/03/03 15:13:03;;;;;;;12.77;6.60;;;13.20;99.90;;;;;;10031031;28;20511;-73
2024/03/03 15:17:56;;;;;;;12.10;6.82;;;13.30;99.90;;;;;;10035766;28;20033;-72
2024/03/03 15:22:50;;;;;;;15.27;6.47;;;13.30;99.90;;;;;;10034207;28;20117;-71
2024/03/03 15:27:43;;;;;;;16.33;7.35;;;13.20;99.90;;;;;;10045255;28;20165;-68
2024/03/03 15:32:41;;;;;;;14.13;7.95;;;13.20;99.90;;;;;;10017616;28;20113;-72
2024/03/03 15:37:32;;;;;;;13.25;7.45;;;13.20;99.90;;;;;;10015265;28;20025;-69
2024/03/03 15:42:22;;;;;;;15.73;8.38;;;13.20;99.90;;;;;;10019081;28;20052;-69
2024/03/03 15:47:14;;;;;;;16.02;7.78;;;13.30;99.90;;;;;;10014988;28;20040;-71
2024/03/03 15:52:05;;;;;;;16.38;7.65;;;13.20;99.90;;;;;;10005598;28;20029;-70
2024/03/03 15:56:56;;;;;;;12.98;6.75;;;13.20;99.90;;;;;;10014802;28;20040;-73
2024/03/03 16:01:48;;;;;;;12.30;7.18;;;13.20;99.90;;;;;;10017704;28;20483;-73
2024/03/03 16:06:39;;;;;;;12.55;7.25;;;13.20;99.90;;;;;;10015394;28;20034;-73
2024/03/03 16:11:31;;;;;;;14.27;8.15;;;13.10;99.90;;;;;;10013335;28;20026;-72
2024/03/03 16:16:25;;;;;;;15.82;8.07;;;13.10;99.90;;;;;;10021347;28;20650;-72
2024/03/03 16:21:16;;;;;;;16.07;8.47;;;13.10;99.90;;;;;;10021808;28;20021;-72
2024/03/03 16:26:07;;;;;;;17.73;9.43;;;13.10;99.90;;;;;;10019427;28;20061;-73
2024/03/03 16:30:58;;;;;;;14.20;7.13;;;13.10;99.90;;;;;;10019784;28;20133;-73
2024/03/03 16:35:48;;;;;;;18.42;9.20;;;13.10;99.90;;;;;;10020420;28;20101;-73
2024/03/03 16:40:39;;;;;;;16.15;8.60;;;13.10;99.90;;;;;;10020397;28;20026;-73
2024/03/03 16:45:30;;;;;;;15.68;7.95;;;13.00;99.90;;;;;;10016922;28;20586;-73
2024/03/03 16:50:21;;;;;;;18.25;8.18;;;13.00;99.90;;;;;;10018628;28;20061;-72
2024/03/03 16:55:12;;;;;;;15.85;7.55;;;13.10;99.90;;;;;;10017015;28;20033;-72
2024/03/03 17:00:03;;;;;;;16.13;8.27;;;13.10;99.90;;;;;;10019552;28;20022;-72
2024/03/03 17:04:54;;;;;;;13.98;8.73;;;13.10;99.90;;;;;;10023524;28;20029;-71
2024/03/03 17:09:45;;;;;;;16.48;7.68;;;13.00;99.90;;;;;;10021603;28;20040;-72
2024/03/03 17:14:35;;;;;;;15.88;7.63;;;13.00;99.90;;;;;;10019538;28;20022;-72
2024/03/03 17:19:26;;;;;;;17.50;9.45;;;13.00;99.90;;;;;;10017773;28;20080;-72
2024/03/03 17:24:17;;;;;;;18.48;8.57;;;12.90;99.90;;;;;;10017429;28;20045;-71
2024/03/03 17:29:07;;;;;;;15.57;8.18;;;13.00;99.90;;;;;;10018558;28;20088;-72
2024/03/03 17:33:58;;;;;;;15.25;8.52;;;13.00;99.90;;;;;;10017370;28;20030;-73
2024/03/03 17:38:49;;;;;;;15.30;8.02;;;13.00;99.90;;;;;;10022219;28;20465;-73
2024/03/03 17:43:40;;;;;;;14.02;7.45;;;13.00;99.90;;;;;;10022258;28;20088;-73
2024/03/03 17:48:31;;;;;;;17.20;8.70;;;12.90;99.90;;;;;;10019474;28;20037;-72
2024/03/03 17:53:22;;;;;;;15.45;8.27;;;12.90;99.90;;;;;;10015516;28;20021;-73
2024/03/03 17:58:13;;;;;;;12.32;7.57;;;13.00;99.90;;;;;;10015539;28;20033;-74
2024/03/03 18:03:04;;;;;;;13.65;8.43;;;13.00;99.90;;;;;;10020506;28;20491;-72
2024/03/03 18:07:55;;;;;;;16.10;8.10;;;13.00;99.90;;;;;;10025741;28;20037;-72
2024/03/03 18:12:45;;;;;;;14.55;7.30;;;13.00;99.90;;;;;;10016018;28;20029;-71
2024/03/03 18:17:38;;;;;;;17.20;7.90;;;13.00;99.90;;;;;;10016164;28;20394;-69
2024/03/03 18:22:29;;;;;;;16.63;8.48;;;13.00;99.90;;;;;;10012236;28;20474;-73
2024/03/03 18:27:22;;;;;;;14.82;8.52;;;13.00;99.90;;;;;;10016012;28;20058;-70
2024/03/03 18:32:13;;;;;;;12.10;7.63;;;13.00;99.90;;;;;;10016219;28;20721;-72
2024/03/03 18:37:04;;;;;;;14.85;7.40;;;13.00;99.90;;;;;;10024046;28;20029;-72
2024/03/03 18:41:55;;;;;;;15.60;8.30;;;12.90;99.90;;;;;;10017167;28;20037;-73
2024/03/03 18:46:45;;;;;;;14.48;8.27;;;12.90;99.90;;;;;;10015563;28;20283;-72
2024/03/03 18:51:36;;;;;;;16.92;7.93;;;13.00;99.90;;;;;;10016143;28;20042;-73
2024/03/03 18:56:27;;;;;;;15.75;9.30;;;12.90;99.90;;;;;;10020348;28;20096;-71
2024/03/03 19:01:18;;;;;;;12.82;7.47;;;12.90;99.90;;;;;;10013244;28;20181;-71
2024/03/03 19:06:10;;;;;;;14.98;8.13;;;12.90;99.90;;;;;;10015591;28;20042;-74
2024/03/03 19:11:02;;;;;;;16.52;9.27;;;12.80;99.90;;;;;;10016275;28;20022;-73
2024/03/03 19:15:53;;;;;;;13.98;8.20;;;12.80;99.90;;;;;;10015178;28;20052;-72
2024/03/03 19:20:43;;;;;;;15.00;8.27;;;12.80;99.90;;;;;;10006663;28;20550;-72
2024/03/03 19:25:35;;;;;;;13.48;7.40;;;12.70;99.90;;;;;;10010704;28;20593;-74
2024/03/03 19:30:26;;;;;;;14.00;8.10;;;12.80;99.90;;;;;;10019988;28;20443;-73
2024/03/03 19:35:17;;;;;;;10.75;5.72;;;12.60;99.90;;;;;;10015064;28;20066;-73
2024/03/03 19:40:10;;;;;;;7.38;3.90;;;12.60;99.90;;;;;;10013424;28;20165;-74
2024/03/03 19:45:02;;;;;;;6.35;3.58;;;12.50;99.90;;;;;;10018897;28;20579;-73
2024/03/03 19:49:53;;;;;;;3.95;2.42;;;12.40;99.90;;;;;;10020284;28;20049;-73
2024/03/03 19:54:44;;;;;;;3.75;1.95;;;12.40;99.90;;;;;;10028116;28;20112;-72
2024/03/03 19:59:35;;;;;;;3.85;2.15;;;12.40;99.90;;;;;;10020240;28;20168;-70
2024/03/03 20:04:26;;;;;;;3.28;1.70;;;12.30;99.90;;;;;;10021864;28;20111;-71
2024/03/03 20:09:19;;;;;;;3.42;1.80;;;12.20;99.90;;;;;;10021450;28;20045;-73
2024/03/03 20:14:10;;;;;;;2.97;1.77;;;12.20;99.90;;;;;;10017670;28;20092;-68
2024/03/03 20:19:01;;;;;;;4.35;2.15;;;12.10;99.90;;;;;;10020816;28;20461;-70
2024/03/03 20:23:52;;;;;;;3.03;2.05;;;12.10;99.90;;;;;;10021159;28;20092;-74
2024/03/03 20:28:43;;;;;;;3.33;2.38;;;12.10;99.90;;;;;;10007190;28;20132;-72
2024/03/03 20:33:34;;;;;;;4.05;1.92;;;12.00;99.90;;;;;;9996370;28;20048;-72
2024/03/03 20:38:26;;;;;;;2.88;1.88;;;12.00;99.90;;;;;;9994514;28;20026;-71
2024/03/03 20:43:16;;;;;;;2.10;1.60;;;12.00;99.90;;;;;;10003361;28;20026;-70
2024/03/03 20:48:07;;;;;;;2.97;1.73;;;11.90;99.90;;;;;;10005484;28;20049;-74
2024/03/03 20:52:58;;;;;;;2.80;1.92;;;11.90;99.90;;;;;;10019064;28;20052;-74
2024/03/03 20:57:49;;;;;;;3.22;1.58;;;11.80;99.90;;;;;;9998592;28;20537;-74
2024/03/03 21:02:41;;;;;;;2.53;1.65;;;11.90;99.90;;;;;;10001143;28;20036;-74
2024/03/03 21:07:32;;;;;;;3.00;2.50;;;11.90;99.90;;;;;;9997390;28;20404;-73
2024/03/03 21:12:23;;;;;;;2.55;2.00;;;12.00;99.90;;;;;;10001042;28;20064;-72
2024/03/03 21:17:14;;;;;;;2.85;1.98;;;12.00;99.90;;;;;;10014406;28;20383;-74
2024/03/03 21:22:04;;;;;;;2.58;1.95;;;12.00;99.90;;;;;;10016806;28;20129;-73
2024/03/03 21:26:58;;;;;;;3.75;2.40;;;12.10;99.90;;;;;;10002556;28;20146;-71
2024/03/03 21:31:49;;;;;;;4.53;2.00;;;12.00;99.90;;;;;;10001147;28;20038;-72
2024/03/03 21:36:40;;;;;;;3.20;2.03;;;12.10;99.90;;;;;;10003083;28;20030;-71
2024/03/03 21:41:30;;;;;;;4.10;2.55;;;12.10;99.90;;;;;;10006079;28;20031;-71
2024/03/03 21:46:21;;;;;;;3.17;2.28;;;12.20;99.90;;;;;;10015825;28;20034;-72
2024/03/03 21:51:14;;;;;;;5.25;2.88;;;12.20;99.90;;;;;;10010799;28;20052;-72
2024/03/03 21:56:05;;;;;;;4.32;2.47;;;12.20;99.90;;;;;;10015446;28;20045;-72
2024/03/03 22:00:56;;;;;;;4.03;2.60;;;12.20;99.90;;;;;;10017177;28;20034;-74
2024/03/03 22:05:47;;;;;;;3.50;2.30;;;12.20;99.90;;;;;;10015288;28;20048;-73
2024/03/03 22:10:38;;;;;;;3.60;2.85;;;12.20;99.90;;;;;;10015690;28;20470;-71
2024/03/03 22:15:29;;;;;;;4.55;2.72;;;12.20;99.90;;;;;;10016005;28;20049;-72
2024/03/03 22:20:20;;;;;;;3.30;2.45;;;12.10;99.90;;;;;;10016370;28;20041;-73
2024/03/03 22:25:11;;;;;;;4.10;2.50;;;12.20;99.90;;;;;;10016782;28;20025;-73
2024/03/03 22:30:01;;;;;;;4.97;2.33;;;12.20;99.90;;;;;;10015441;28;20132;-73
2024/03/03 22:34:52;;;;;;;4.72;2.33;;;12.20;99.90;;;;;;10016000;28;20156;-73
2024/03/03 22:39:43;;;;;;;4.20;2.58;;;12.20;99.90;;;;;;10014177;28;20038;-73
2024/03/03 22:44:35;;;;;;;4.00;2.33;;;12.20;99.90;;;;;;10017178;28;20029;-74
2024/03/03 22:49:25;;;;;;;4.78;2.90;;;12.20;99.90;;;;;;10016496;28;20241;-74
2024/03/03 22:54:16;;;;;;;3.13;2.33;;;12.20;99.90;;;;;;10018566;28;20237;-74
2024/03/03 22:59:07;;;;;;;3.97;2.53;;;12.10;99.90;;;;;;10016572;28;20018;-73
2024/03/03 23:03:57;;;;;;;3.20;1.98;;;12.10;99.90;;;;;;10016194;28;20113;-73
2024/03/03 23:08:48;;;;;;;5.95;3.20;;;12.00;99.90;;;;;;10015488;28;20049;-72
2024/03/03 23:13:39;;;;;;;5.15;2.10;;;12.00;99.90;;;;;;10014454;28;20480;-73
2024/03/03 23:18:30;;;;;;;6.35;1.92;;;11.90;99.90;;;;;;10012806;28;20094;-73
2024/03/03 23:23:20;;;;;;;3.80;2.30;;;11.80;99.90;;;;;;10023359;28;20557;-73
2024/03/03 23:28:11;;;;;;;3.00;1.92;;;11.90;99.90;;;;;;10016511;28;20636;-72
2024/03/03 23:33:02;;;;;;;4.28;2.80;;;11.90;99.90;;;;;;10023016;28;20456;-72
2024/03/03 23:37:52;;;;;;;5.25;2.65;;;11.90;99.90;;;;;;10027779;28;20041;-72
2024/03/03 23:42:43;;;;;;;5.07;3.10;;;11.90;99.90;;;;;;10018200;28;20033;-74
2024/03/03 23:47:34;;;;;;;5.10;2.55;;;11.90;99.90;;;;;;10022476;28;20430;-72
2024/03/03 23:52:24;;;;;;;4.40;2.65;;;11.90;99.90;;;;;;10023336;28;20448;-72
2024/03/03 23:57:15;;;;;;;5.60;2.92;;;11.90;99.90;;;;;;10020711;28;20045;-72
